Time;durP1;ratioP1;P1;durP2;ratioP2;P2;SDS_P1;SDS_P2;PMS_P1;PMS_P2;Temp;Humidity;BMP_temperature;BMP_pressure;BME280_temperature;BME280_humidity;BME280_pressure;Samples;Min_cycle;Max_cycle;Signal;HPM_P1;HPM_P2
2023/12/09 00:01:40;;;;;;;10.93;8.00;;;;;;;1.41;100.00;62145.03;4986949;28;20204;-76
2023/12/09 00:04:07;;;;;;;9.65;7.45;;;;;;;1.37;100.00;62141.44;4984683;28;20204;-76
2023/12/09 00:06:33;;;;;;;10.88;7.80;;;;;;;1.41;100.00;62142.53;4983297;28;20407;-77
2023/12/09 00:09:00;;;;;;;9.90;7.43;;;;;;;1.42;100.00;62141.56;4987725;28;20529;-78
2023/12/09 00:11:27;;;;;;;11.90;7.55;;;;;;;1.42;100.00;62143.56;4987344;28;20208;-76
2023/12/09 00:13:54;;;;;;;9.77;7.65;;;;;;;1.46;100.00;62152.69;4984952;28;20204;-78
2023/12/09 00:16:23;;;;;;;8.80;7.38;;;;;;;1.43;100.00;62145.09;4986774;28;20301;-76
2023/12/09 00:18:50;;;;;;;10.10;7.68;;;;;;;1.44;100.00;62145.59;4987843;28;20271;-76
2023/12/09 00:21:17;;;;;;;9.38;7.45;;;;;;;1.41;100.00;62145.56;4987387;28;20212;-76
2023/12/09 00:23:44;;;;;;;10.35;6.75;;;;;;;1.36;100.00;62137.41;4985045;28;20230;-77
2023/12/09 00:26:11;;;;;;;11.68;7.90;;;;;;;1.28;100.00;62134.22;4986661;28;20275;-76
2023/12/09 00:28:38;;;;;;;14.02;9.18;;;;;;;1.18;100.00;62124.97;4987092;28;20231;-77
2023/12/09 00:31:05;;;;;;;12.27;8.20;;;;;;;1.16;100.00;62119.91;4985796;28;20204;-76
2023/12/09 00:33:33;;;;;;;13.85;10.20;;;;;;;1.00;100.00;62104.00;4987012;28;20294;-78
2023/12/09 00:36:00;;;;;;;14.23;9.57;;;;;;;0.87;100.00;62087.66;4977052;28;20243;-76
2023/12/09 00:38:27;;;;;;;9.23;7.63;;;;;;;0.83;100.00;62084.06;4987064;28;20259;-77
2023/12/09 00:40:54;;;;;;;11.80;8.30;;;;;;;0.75;100.00;62072.84;4985498;28;20253;-76
2023/12/09 00:43:21;;;;;;;9.77;7.53;;;;;;;0.75;100.00;62070.84;4983601;28;20247;-76
2023/12/09 00:45:48;;;;;;;7.60;5.70;;;;;;;0.68;100.00;62070.66;4986295;28;20222;-77
2023/12/09 00:48:15;;;;;;;7.50;6.10;;;;;;;0.59;100.00;62058.94;4978984;28;20221;-77
2023/12/09 00:50:43;;;;;;;7.00;5.85;;;;;;;0.50;100.00;62050.22;4981460;28;20200;-77
2023/12/09 00:53:12;;;;;;;10.48;7.65;;;;;;;0.37;100.00;62034.38;4985112;28;20263;-78
2023/12/09 00:55:39;;;;;;;11.25;8.23;;;;;;;0.47;100.00;62046.63;4987450;28;20204;-76
2023/12/09 00:58:06;;;;;;;9.73;7.13;;;;;;;0.41;100.00;62037.97;4986439;28;20228;-76
2023/12/09 01:00:33;;;;;;;15.38;8.95;;;;;;;0.34;100.00;62038.84;4984435;28;20222;-75
2023/12/09 01:02:59;;;;;;;15.50;8.82;;;;;;;0.31;100.00;62025.22;4984819;28;20223;-76
2023/12/09 01:05:27;;;;;;;10.93;8.13;;;;;;;0.23;100.00;62019.53;4986150;28;20485;-77
2023/12/09 01:07:55;;;;;;;9.07;7.20;;;;;;;0.17;100.00;62018.38;4986963;28;20231;-76
2023/12/09 01:10:22;;;;;;;12.00;7.90;;;;;;;0.14;100.00;62013.31;4985353;28;20547;-77
2023/12/09 01:12:49;;;;;;;12.85;8.30;;;;;;;0.15;100.00;62014.34;4987047;28;20230;-76
2023/12/09 01:15:16;;;;;;;12.88;8.73;;;;;;;0.10;100.00;62009.22;4986397;28;20211;-76
2023/12/09 01:17:44;;;;;;;15.50;9.63;;;;;;;0.03;100.00;62004.03;4985331;28;20256;-78
2023/12/09 01:20:12;;;;;;;12.82;8.20;;;;;;;0.03;100.00;62002.06;4987449;28;20203;-76
2023/12/09 01:22:39;;;;;;;12.98;7.85;;;;;;;0.03;100.00;61999.56;4985159;28;20259;-78
2023/12/09 01:25:09;;;;;;;12.63;7.57;;;;;;;0.00;100.00;62001.97;4987648;28;20391;-78
2023/12/09 01:27:36;;;;;;;11.02;8.13;;;;;;;0.06;100.00;62005.13;4984316;28;20232;-77
2023/12/09 01:30:04;;;;;;;13.85;8.40;;;;;;;0.12;100.00;62008.25;4984784;28;20226;-77
2023/12/09 01:32:31;;;;;;;11.00;8.02;;;;;;;0.18;100.00;62017.41;4987939;28;20267;-78
2023/12/09 01:34:57;;;;;;;10.52;7.53;;;;;;;0.24;100.00;62023.56;4994457;28;20215;-76
2023/12/09 01:37:24;;;;;;;8.57;6.80;;;;;;;0.30;100.00;62034.72;4983708;28;20262;-77
2023/12/09 01:39:51;;;;;;;11.50;7.35;;;;;;;0.24;100.00;62026.09;4981981;28;20212;-77
2023/12/09 01:42:19;;;;;;;11.13;7.05;;;;;;;0.32;100.00;62028.75;4985719;28;20223;-79
2023/12/09 01:44:47;;;;;;;12.40;6.93;;;;;;;0.39;100.00;62036.44;4984172;28;20215;-76
2023/12/09 01:47:14;;;;;;;8.25;5.72;;;;;;;0.44;100.00;62046.06;4983093;28;20392;-76
2023/12/09 01:49:42;;;;;;;5.25;4.75;;;;;;;0.58;100.00;62057.91;4985876;28;20212;-77
2023/12/09 01:52:09;;;;;;;9.52;5.90;;;;;;;0.63;100.00;62063.56;4977278;28;20419;-77
2023/12/09 01:54:36;;;;;;;7.03;5.80;;;;;;;0.60;100.00;62059.97;4984194;28;20199;-77
2023/12/09 01:57:04;;;;;;;6.93;6.05;;;;;;;0.67;100.00;62067.66;4984726;28;20286;-76
2023/12/09 01:59:32;;;;;;;6.97;5.30;;;;;;;0.76;100.00;62081.88;4984874;28;20475;-78
2023/12/09 02:01:59;;;;;;;6.57;4.65;;;;;;;0.70;100.00;62068.22;4982659;28;20244;-77
2023/12/09 02:04:28;;;;;;;6.38;5.40;;;;;;;0.68;100.00;62068.69;4973531;28;20215;-77
2023/12/09 02:06:55;;;;;;;6.80;5.28;;;;;;;0.66;100.00;62066.09;4986130;28;20228;-77
2023/12/09 02:09:22;;;;;;;5.13;4.55;;;;;;;0.64;100.00;62064.56;4983481;28;20207;-77
2023/12/09 02:11:56;;;;;;;5.53;4.47;;;;;;;0.62;100.00;62062.50;4980002;28;20490;-77
2023/12/09 02:14:30;;;;;;;6.30;4.88;;;;;;;0.55;100.00;62052.84;4985097;28;20204;-77
2023/12/09 02:17:03;;;;;;;5.45;4.90;;;;;;;0.50;100.00;62047.72;4995489;28;20257;-77
2023/12/09 02:19:31;;;;;;;5.63;5.03;;;;;;;0.40;100.00;62039.47;4985060;28;20208;-76
2023/12/09 02:22:03;;;;;;;6.60;5.43;;;;;;;0.30;100.00;62027.22;4977953;28;20223;-77
2023/12/09 02:24:31;;;;;;;6.70;5.55;;;;;;;0.24;100.00;62023.56;4985394;28;20570;-76
2023/12/09 02:27:03;;;;;;;5.38;4.90;;;;;;;0.23;100.00;62027.53;4985568;28;20398;-77
2023/12/09 02:29:35;;;;;;;7.13;5.82;;;;;;;0.19;100.00;62015.94;4984585;28;20279;-77
2023/12/09 02:32:06;;;;;;;6.82;5.68;;;;;;;0.15;100.00;62013.84;4981679;28;20235;-77
2023/12/09 02:34:37;;;;;;;5.93;4.93;;;;;;;0.14;100.00;62015.31;4985931;28;20196;-77
2023/12/09 02:37:06;;;;;;;5.78;4.93;;;;;;;0.12;100.00;62015.75;4986203;28;20246;-78
2023/12/09 02:39:35;;;;;;;5.13;4.38;;;;;;;0.05;100.00;62004.09;4983014;28;20452;-76
2023/12/09 02:42:05;;;;;;;6.40;4.80;;;;;;;-0.04;100.00;62000.41;4985623;28;20224;-77
2023/12/09 02:44:32;;;;;;;5.93;4.68;;;;;;;-0.05;100.00;61993.84;4978704;28;20211;-77
2023/12/09 02:46:59;;;;;;;4.55;4.15;;;;;;;-0.12;100.00;61987.19;4985248;28;20223;-76
2023/12/09 02:49:26;;;;;;;4.85;4.38;;;;;;;-0.18;100.00;61980.53;4983898;28;20278;-77
2023/12/09 02:51:53;;;;;;;7.53;5.53;;;;;;;-0.21;100.00;61977.97;4985292;28;20247;-76
2023/12/09 02:54:20;;;;;;;6.03;5.22;;;;;;;-0.25;100.00;61976.38;4985182;28;20452;-77
2023/12/09 02:56:48;;;;;;;5.72;5.18;;;;;;;-0.26;100.00;61970.34;4983038;28;20239;-77
2023/12/09 02:59:15;;;;;;;7.10;5.05;;;;;;;-0.26;100.00;61972.34;4972069;28;20207;-76
2023/12/09 03:01:42;;;;;;;6.95;6.20;;;;;;;-0.30;100.00;61963.22;4984632;28;20304;-77
2023/12/09 03:04:10;;;;;;;7.22;6.05;;;;;;;-0.32;100.00;61963.69;4979369;28;20207;-77
2023/12/09 03:06:37;;;;;;;5.43;4.70;;;;;;;-0.28;100.00;61967.78;4980907;28;20209;-76
2023/12/09 03:09:04;;;;;;;5.78;5.13;;;;;;;-0.34;100.00;61964.66;4974436;28;20482;-77
2023/12/09 03:11:31;;;;;;;6.00;4.50;;;;;;;-0.40;100.00;61963.50;4985238;28;20276;-77
2023/12/09 03:13:59;;;;;;;6.65;5.43;;;;;;;-0.45;100.00;61952.88;4983551;28;20204;-76
2023/12/09 03:16:26;;;;;;;5.00;4.47;;;;;;;-0.48;100.00;61952.28;4982215;28;20204;-76
2023/12/09 03:18:53;;;;;;;5.85;4.93;;;;;;;-0.48;100.00;61949.78;4985172;28;20204;-77
2023/12/09 03:21:20;;;;;;;6.78;5.07;;;;;;;-0.49;100.00;61946.28;4984352;28;20360;-76
2023/12/09 03:23:47;;;;;;;5.32;4.32;;;;;;;-0.54;100.00;61944.16;4983635;28;20200;-79
2023/12/09 03:26:16;;;;;;;6.53;4.63;;;;;;;-0.64;100.00;61935.91;4986533;28;20224;-77
2023/12/09 03:28:43;;;;;;;5.47;4.45;;;;;;;-0.65;100.00;61937.38;4979103;28;20223;-77
2023/12/09 03:31:13;;;;;;;6.72;5.15;;;;;;;-0.70;100.00;61927.78;4987118;28;20211;-76
2023/12/09 03:33:41;;;;;;;5.25;4.75;;;;;;;-0.61;100.00;61934.50;4988066;28;20228;-76
2023/12/09 03:36:09;;;;;;;6.75;4.95;;;;;;;-0.62;100.00;61933.47;4979638;28;20271;-77
2023/12/09 03:38:36;;;;;;;5.68;4.28;;;;;;;-0.65;100.00;61930.41;4988162;28;20248;-77
2023/12/09 03:41:05;;;;;;;6.38;4.40;;;;;;;-0.67;100.00;61925.34;4985221;28;20222;-77
2023/12/09 03:43:32;;;;;;;4.38;3.97;;;;;;;-0.65;100.00;61939.88;4985606;28;20580;-77
2023/12/09 03:45:59;;;;;;;6.65;4.65;;;;;;;-0.72;100.00;61922.72;4980006;28;20216;-76
2023/12/09 03:48:28;;;;;;;5.70;4.80;;;;;;;-0.71;100.00;61929.25;4987410;28;20228;-77
2023/12/09 03:50:56;;;;;;;5.60;4.72;;;;;;;-0.70;100.00;61925.28;4984876;28;20548;-77
2023/12/09 03:53:23;;;;;;;4.57;4.07;;;;;;;-0.78;100.00;61914.09;4982186;28;20311;-77
2023/12/09 03:55:50;;;;;;;5.22;4.60;;;;;;;-0.80;100.00;61922.53;4986061;28;20208;-77
2023/12/09 03:58:17;;;;;;;6.45;4.28;;;;;;;-0.80;100.00;61914.53;4986349;28;20243;-77
2023/12/09 04:00:44;;;;;;;4.57;4.10;;;;;;;-0.81;100.00;61916.00;4988444;28;20207;-76
2023/12/09 04:03:12;;;;;;;5.05;4.55;;;;;;;-0.84;100.00;61912.94;4982169;28;20523;-77
2023/12/09 04:05:41;;;;;;;6.60;4.70;;;;;;;-0.89;100.00;61905.81;4985860;28;20493;-77
2023/12/09 04:08:08;;;;;;;4.90;4.43;;;;;;;-0.86;100.00;61913.38;4985039;28;20287;-76
2023/12/09 04:10:35;;;;;;;5.03;4.55;;;;;;;-0.84;100.00;61915.44;4985881;28;20276;-77
2023/12/09 04:13:02;;;;;;;6.15;4.90;;;;;;;-0.83;100.00;61914.47;4983164;28;20227;-77
2023/12/09 04:15:29;;;;;;;6.85;4.57;;;;;;;-0.83;100.00;61916.47;4986492;28;20243;-76
2023/12/09 04:17:56;;;;;;;4.70;4.30;;;;;;;-0.83;100.00;61913.97;4986519;28;20235;-76
2023/12/09 04:20:23;;;;;;;5.28;4.70;;;;;;;-0.86;100.00;61908.91;4986713;28;20517;-77
2023/12/09 04:22:52;;;;;;;5.15;4.68;;;;;;;-0.83;100.00;61911.47;4988342;28;20238;-77
2023/12/09 04:25:21;;;;;;;5.00;4.47;;;;;;;-0.85;100.00;61911.91;4984877;28;20263;-76
2023/12/09 04:27:48;;;;;;;5.97;4.80;;;;;;;-0.92;100.00;61902.25;4986249;28;20395;-76
2023/12/09 04:30:15;;;;;;;6.63;5.03;;;;;;;-1.00;100.00;61899.56;4987129;28;20213;-76
2023/12/09 04:32:42;;;;;;;8.05;5.88;;;;;;;-0.94;100.00;61902.69;4985558;28;20230;-77
2023/12/09 04:35:10;;;;;;;7.05;6.05;;;;;;;-0.93;100.00;61901.22;4985898;28;20215;-76
2023/12/09 04:37:38;;;;;;;7.60;5.78;;;;;;;-0.91;100.00;61906.28;4987294;28;20248;-77
2023/12/09 04:40:09;;;;;;;7.30;6.30;;;;;;;-0.96;100.00;61898.66;4986931;28;20207;-76
2023/12/09 04:42:37;;;;;;;7.38;6.43;;;;;;;-0.90;100.00;61909.81;4981649;28;20224;-77
2023/12/09 04:45:05;;;;;;;9.50;6.95;;;;;;;-0.89;100.00;61905.31;4987376;28;20238;-77
2023/12/09 04:47:32;;;;;;;9.02;7.40;;;;;;;-0.88;100.00;61906.34;4984787;28;20213;-76
2023/12/09 04:49:59;;;;;;;9.30;7.32;;;;;;;-0.89;100.00;61907.81;4982292;28;20215;-77
2023/12/09 04:52:26;;;;;;;9.40;7.35;;;;;;;-0.86;100.00;61908.41;4981037;28;20267;-77
2023/12/09 04:54:53;;;;;;;9.05;7.57;;;;;;;-0.84;100.00;61912.94;4985467;28;20212;-78
2023/12/09 04:57:22;;;;;;;11.02;7.30;;;;;;;-0.84;100.00;61913.44;4986475;28;20243;-77
2023/12/09 04:59:49;;;;;;;11.57;7.45;;;;;;;-0.84;100.00;61910.44;4984418;28;20199;-76
2023/12/09 05:02:16;;;;;;;9.45;7.25;;;;;;;-0.83;100.00;61914.47;4981447;28;20227;-76
2023/12/09 05:04:43;;;;;;;9.82;7.25;;;;;;;-0.85;100.00;61914.41;4986998;28;20207;-76
2023/12/09 05:07:10;;;;;;;9.35;7.55;;;;;;;-0.84;100.00;61915.94;4987272;28;20238;-78
2023/12/09 05:09:37;;;;;;;8.23;7.38;;;;;;;-0.84;100.00;61913.44;4982296;28;20402;-76
2023/12/09 05:12:05;;;;;;;12.07;7.55;;;;;;;-0.79;100.00;61918.03;4985423;28;20220;-77
2023/12/09 05:14:33;;;;;;;10.50;7.57;;;;;;;-0.81;100.00;61916.00;4983612;28;20208;-77
2023/12/09 05:17:01;;;;;;;9.45;6.95;;;;;;;-0.78;100.00;61917.09;4983510;28;20238;-78
2023/12/09 05:19:27;;;;;;;12.52;7.43;;;;;;;-0.76;100.00;61921.13;4977135;28;20200;-77
2023/12/09 05:21:55;;;;;;;9.65;7.55;;;;;;;-0.69;100.00;61928.28;4982831;28;20223;-76
2023/12/09 05:24:22;;;;;;;8.32;5.97;;;;;;;-0.64;100.00;61933.41;4987283;28;20493;-76
2023/12/09 05:26:50;;;;;;;9.32;7.72;;;;;;;-0.62;100.00;61935.47;4983623;28;20223;-76
2023/12/09 05:29:17;;;;;;;13.30;8.38;;;;;;;-0.52;100.00;61946.19;4981395;28;20204;-77
2023/12/09 05:31:45;;;;;;;8.50;6.75;;;;;;;-0.47;100.00;61948.31;4984265;28;20232;-79
2023/12/09 05:34:12;;;;;;;9.25;6.60;;;;;;;-0.35;100.00;61961.13;4986721;28;20224;-76
2023/12/09 05:36:40;;;;;;;11.73;8.60;;;;;;;-0.26;100.00;61972.84;4986862;28;20208;-77
2023/12/09 05:39:07;;;;;;;10.88;7.30;;;;;;;-0.21;100.00;61977.97;4986714;28;20227;-77
2023/12/09 05:41:34;;;;;;;11.45;7.28;;;;;;;-0.09;100.00;61989.75;4975960;28;20204;-76
2023/12/09 05:44:01;;;;;;;10.15;7.70;;;;;;;0.01;100.00;61997.50;4986565;28;20208;-77
2023/12/09 05:46:28;;;;;;;9.15;6.78;;;;;;;0.09;100.00;62005.69;4978425;28;20235;-78
2023/12/09 05:48:56;;;;;;;8.20;6.72;;;;;;;0.15;100.00;62014.34;4984719;28;20226;-78
2023/12/09 05:51:23;;;;;;;9.52;7.10;;;;;;;0.23;100.00;62025.03;4982829;28;20365;-78
2023/12/09 05:53:50;;;;;;;11.27;7.97;;;;;;;0.31;100.00;62030.72;4986435;28;20212;-78
2023/12/09 05:56:17;;;;;;;10.25;8.13;;;;;;;0.39;100.00;62040.94;4985721;28;20200;-77
2023/12/09 05:58:44;;;;;;;9.57;7.00;;;;;;;0.49;100.00;62046.19;4978023;28;20242;-77
2023/12/09 06:01:11;;;;;;;12.82;9.05;;;;;;;0.56;100.00;62058.34;4987866;28;20410;-80
2023/12/09 06:03:38;;;;;;;10.23;7.93;;;;;;;0.61;100.00;62059.00;4987615;28;20429;-77
2023/12/09 06:06:07;;;;;;;8.95;7.10;;;;;;;0.69;100.00;62069.19;4987113;28;20500;-79
2023/12/09 06:08:34;;;;;;;10.13;7.45;;;;;;;0.72;100.00;62072.28;4986388;28;20216;-77
2023/12/09 06:11:00;;;;;;;9.68;7.07;;;;;;;0.80;100.00;62080.47;4988612;28;20271;-78
2023/12/09 06:13:27;;;;;;;11.15;7.28;;;;;;;0.87;100.00;62088.16;4989208;28;20230;-80
2023/12/09 06:15:54;;;;;;;8.45;6.97;;;;;;;0.95;100.00;62091.34;4985744;28;20214;-77
2023/12/09 06:18:21;;;;;;;9.07;7.15;;;;;;;0.89;100.00;62087.19;4982077;28;20262;-79
2023/12/09 06:20:48;;;;;;;8.75;7.53;;;;;;;0.99;100.00;62099.94;4987114;28;20204;-76
2023/12/09 06:23:16;;;;;;;6.97;6.28;;;;;;;1.09;100.00;62113.22;4985339;28;20245;-78
2023/12/09 06:25:43;;;;;;;7.75;6.07;;;;;;;1.15;100.00;62119.41;4984045;28;20207;-79
2023/12/09 06:28:10;;;;;;;8.35;6.57;;;;;;;1.22;100.00;62123.56;4987513;28;20232;-78
2023/12/09 06:30:37;;;;;;;27.08;13.27;;;;;;;1.24;100.00;62120.06;4987537;28;20501;-77
2023/12/09 06:33:04;;;;;;;24.30;11.70;;;;;;;1.15;100.00;62111.88;4987683;28;20589;-78
2023/12/09 06:35:31;;;;;;;33.33;14.20;;;;;;;1.26;100.00;62127.66;4988170;28;20212;-78
2023/12/09 06:37:58;;;;;;;36.13;14.40;;;;;;;1.33;100.00;62132.31;4985921;28;20239;-77
2023/12/09 06:40:26;;;;;;;35.60;14.57;;;;;;;1.36;100.00;62132.38;4986279;28;20208;-76
2023/12/09 06:42:53;;;;;;;24.63;12.07;;;;;;;1.46;100.00;62147.66;4986151;28;20224;-78
2023/12/09 06:45:21;;;;;;;19.60;11.15;;;;;;;1.55;100.00;62157.41;4990954;28;20226;-77
2023/12/09 06:47:48;;;;;;;12.27;7.75;;;;;;;1.64;100.00;62171.66;4989345;28;20232;-76
2023/12/09 06:50:15;;;;;;;10.57;7.45;;;;;;;1.69;100.00;62166.75;4984839;28;20235;-77
2023/12/09 06:52:42;;;;;;;10.60;7.70;;;;;;;1.76;100.00;62178.97;4985197;28;20304;-77
2023/12/09 06:55:09;;;;;;;12.40;8.80;;;;;;;1.76;100.00;62178.47;4983638;28;20222;-77
2023/12/09 06:57:38;;;;;;;14.43;9.13;;;;;;;1.84;100.00;62187.19;4982952;28;20263;-77
2023/12/09 07:00:07;;;;;;;17.17;10.57;;;;;;;1.92;100.00;62195.38;4986309;28;20204;-76
2023/12/09 07:02:34;;;;;;;10.00;6.90;;;;;;;1.96;100.00;62202.00;4986625;28;20234;-76
2023/12/09 07:05:01;;;;;;;8.80;7.43;;;;;;;2.02;100.00;62205.66;4988455;28;20196;-76
2023/12/09 07:07:28;;;;;;;10.85;8.75;;;;;;;2.03;100.00;62201.16;4988161;28;20242;-77
2023/12/09 07:09:56;;;;;;;9.95;7.80;;;;;;;1.99;100.00;62205.09;4986048;28;20203;-77
2023/12/09 07:12:22;;;;;;;8.25;6.25;;;;;;;2.03;100.00;62206.69;4981321;28;20220;-77
2023/12/09 07:14:50;;;;;;;10.95;7.38;;;;;;;2.09;100.00;62210.31;4987417;28;20227;-75
2023/12/09 07:17:17;;;;;;;7.38;6.25;;;;;;;2.17;100.00;62221.06;4983833;28;20584;-78
2023/12/09 07:19:44;;;;;;;6.97;5.47;;;;;;;2.18;100.00;62222.09;4986672;28;20305;-77
2023/12/09 07:22:11;;;;;;;6.22;5.65;;;;;;;2.31;100.00;62239.94;4984068;28;20239;-77
2023/12/09 07:24:38;;;;;;;6.28;5.68;;;;;;;2.28;100.00;62234.34;4986653;28;20212;-77
2023/12/09 07:27:05;;;;;;;6.82;6.18;;;;;;;2.28;100.00;62232.34;4985489;28;20231;-77
2023/12/09 07:29:32;;;;;;;6.28;5.68;;;;;;;2.33;100.00;62236.97;4982255;28;20212;-76
2023/12/09 07:32:02;;;;;;;6.40;5.60;;;;;;;2.32;100.00;62236.47;4983788;28;20238;-76
2023/12/09 07:34:29;;;;;;;9.80;5.93;;;;;;;2.44;100.00;62250.25;4982444;28;20429;-76
2023/12/09 07:36:57;;;;;;;7.65;6.10;;;;;;;2.50;100.00;62259.47;4984848;28;20583;-78
2023/12/09 07:39:24;;;;;;;9.13;6.45;;;;;;;2.56;100.00;62262.59;4984036;28;20263;-75
2023/12/09 07:41:51;;;;;;;12.10;7.93;;;;;;;2.62;100.00;62263.75;4985279;28;20271;-76
2023/12/09 07:44:19;;;;;;;9.23;6.97;;;;;;;2.63;100.00;62267.78;4980935;28;20272;-77
2023/12/09 07:46:46;;;;;;;6.95;6.28;;;;;;;2.38;100.00;62244.13;4986416;28;20220;-78
2023/12/09 07:49:14;;;;;;;8.05;6.28;;;;;;;2.48;100.00;62249.34;4986461;28;20215;-76
2023/12/09 07:51:41;;;;;;;7.13;6.10;;;;;;;2.47;100.00;62255.88;4986516;28;20228;-77
2023/12/09 07:54:08;;;;;;;9.27;6.68;;;;;;;2.36;100.00;62237.56;4986838;28;20200;-78
2023/12/09 07:56:36;;;;;;;9.70;6.65;;;;;;;2.48;100.00;62249.88;4986278;28;20204;-77
2023/12/09 07:59:02;;;;;;;7.18;6.30;;;;;;;2.57;100.00;62253.59;4985989;28;20243;-77
2023/12/09 08:01:29;;;;;;;7.68;5.72;;;;;;;2.55;100.00;62259.59;4979960;28;20271;-76
2023/12/09 08:03:56;;;;;;;7.35;6.38;;;;;;;2.49;100.00;62255.41;4981782;28;20214;-76
2023/12/09 08:06:25;;;;;;;6.78;5.88;;;;;;;2.54;100.00;62258.03;4985199;28;20200;-77
2023/12/09 08:08:52;;;;;;;7.72;5.95;;;;;;;2.52;100.00;62255.97;4985190;28;20207;-75
2023/12/09 08:11:19;;;;;;;8.75;7.25;;;;;;;2.62;100.00;62266.78;4981460;28;20204;-76
2023/12/09 08:13:45;;;;;;;11.52;7.95;;;;;;;2.12;100.00;62213.41;4984976;28;20444;-75
2023/12/09 08:16:13;;;;;;;10.68;7.82;;;;;;;1.93;100.00;62193.91;4984685;28;20572;-74
2023/12/09 08:18:42;;;;;;;11.55;7.85;;;;;;;1.99;100.00;62202.06;4984363;28;20302;-77
2023/12/09 08:21:09;;;;;;;7.68;6.53;;;;;;;2.20;100.00;62221.13;4984814;28;20389;-76
2023/12/09 08:23:38;;;;;;;11.15;7.80;;;;;;;2.36;100.00;62240.06;4986320;28;20230;-75
2023/12/09 08:26:05;;;;;;;10.25;7.43;;;;;;;2.44;100.00;62250.78;4986192;28;20262;-76
2023/12/09 08:28:34;;;;;;;11.52;7.38;;;;;;;2.91;100.00;62293.53;4972227;28;20259;-75
2023/12/09 08:31:00;;;;;;;10.18;7.47;;;;;;;3.23;100.00;62326.94;4979132;28;20254;-76
2023/12/09 08:33:27;;;;;;;11.00;8.20;;;;;;;3.35;100.00;62343.78;4986986;28;20224;-76
2023/12/09 08:35:54;;;;;;;10.18;6.97;;;;;;;2.57;100.00;62266.66;4986602;28;20505;-75
2023/12/09 08:38:21;;;;;;;9.70;6.78;;;;;;;2.49;100.00;62252.88;4984440;28;20309;-75
2023/12/09 08:40:50;;;;;;;10.15;6.85;;;;;;;2.67;100.00;62268.88;4986993;28;20234;-76
2023/12/09 08:43:16;;;;;;;10.38;7.25;;;;;;;2.80;100.00;62284.75;4976535;28;20224;-76
2023/12/09 08:45:43;;;;;;;5.45;4.47;;;;;;;3.04;100.00;62311.91;4983529;28;20464;-75
2023/12/09 08:48:10;;;;;;;4.05;3.72;;;;;;;3.05;100.00;62315.47;4981805;28;20230;-75
2023/12/09 08:50:37;;;;;;;5.88;4.97;;;;;;;3.24;100.00;62333.00;4979584;28;20333;-75
2023/12/09 08:53:04;;;;;;;8.60;6.53;;;;;;;3.04;100.00;62309.91;4980542;28;20230;-76
2023/12/09 08:55:31;;;;;;;7.20;6.20;;;;;;;2.80;100.00;62284.75;4981439;28;20208;-75
2023/12/09 08:57:59;;;;;;;9.40;7.10;;;;;;;2.87;100.00;62291.94;4974308;28;20463;-74
2023/12/09 09:00:27;;;;;;;17.95;13.32;;;;;;;2.73;100.00;62275.56;4985784;28;20219;-76
2023/12/09 09:02:55;;;;;;;15.55;10.38;;;;;;;3.05;100.00;62310.44;4985269;28;20239;-75
2023/12/09 09:05:22;;;;;;;6.20;5.68;;;;;;;3.30;100.00;62334.13;4984831;28;20231;-75
2023/12/09 09:07:49;;;;;;;10.18;6.55;;;;;;;3.38;100.00;62341.84;4986507;28;20267;-75
2023/12/09 09:10:16;;;;;;;7.05;6.35;;;;;;;3.21;98.71;62322.34;4986167;28;20516;-74
2023/12/09 09:12:44;;;;;;;10.90;7.22;;;;;;;3.16;100.00;62324.25;4980743;28;20225;-75
2023/12/09 09:15:13;;;;;;;9.95;8.00;;;;;;;3.38;100.00;62344.88;4984246;28;20267;-75
2023/12/09 09:17:40;;;;;;;11.40;8.30;;;;;;;2.94;100.00;62299.13;4986178;28;20216;-74
2023/12/09 09:20:08;;;;;;;10.55;7.75;;;;;;;2.68;100.00;62272.94;4992442;28;20385;-76
2023/12/09 09:22:35;;;;;;;7.88;6.15;;;;;;;2.99;100.00;62301.75;4973577;28;20227;-75
2023/12/09 09:25:02;;;;;;;9.35;7.00;;;;;;;3.20;100.00;62323.84;4976366;28;20512;-75
2023/12/09 09:27:29;;;;;;;10.48;7.80;;;;;;;2.74;100.00;62281.09;4986244;28;20254;-75
2023/12/09 09:29:56;;;;;;;8.00;7.13;;;;;;;2.93;100.00;62298.63;4984678;28;20427;-76
2023/12/09 09:32:24;;;;;;;9.70;5.95;;;;;;;2.89;100.00;62289.47;4979265;28;20248;-75
2023/12/09 09:34:51;;;;;;;6.45;5.45;;;;;;;2.71;100.00;62275.50;4983513;28;20211;-76
2023/12/09 09:37:18;;;;;;;8.32;5.13;;;;;;;3.04;100.00;62309.91;4986514;28;20231;-77
2023/12/09 09:39:45;;;;;;;6.70;5.20;;;;;;;2.97;100.00;62302.72;4978384;28;20229;-76
2023/12/09 09:42:19;;;;;;;8.02;4.78;;;;;;;2.64;100.00;62268.81;4983988;28;20516;-75
2023/12/09 09:44:48;;;;;;;8.18;6.18;;;;;;;2.49;100.00;62253.41;4985697;28;20427;-75
2023/12/09 09:47:15;;;;;;;6.35;5.75;;;;;;;2.32;100.00;62233.97;4980128;28;20223;-75
2023/12/09 09:49:44;;;;;;;6.55;5.47;;;;;;;2.50;100.00;62259.47;4988761;28;20215;-76
2023/12/09 09:52:11;;;;;;;6.97;5.18;;;;;;;2.70;100.00;62274.97;4985194;28;20232;-76
2023/12/09 09:54:39;;;;;;;5.53;5.00;;;;;;;2.58;100.00;62262.66;4983331;28;20212;-76
2023/12/09 09:57:07;;;;;;;7.00;5.72;;;;;;;2.88;100.00;62298.00;4983783;28;20310;-77
2023/12/09 09:59:35;;;;;;;6.60;5.85;;;;;;;3.12;100.00;62317.63;4986516;28;20424;-77
2023/12/09 10:02:04;;;;;;;8.00;6.40;;;;;;;3.43;100.00;62350.00;4980978;28;20252;-78
2023/12/09 10:04:31;;;;;;;6.82;5.80;;;;;;;3.60;97.25;62369.50;4986218;28;20299;-76
2023/12/09 10:06:59;;;;;;;7.53;6.25;;;;;;;3.79;95.90;62386.00;4982180;28;20235;-77
2023/12/09 10:09:26;;;;;;;8.32;6.07;;;;;;;3.84;93.72;62393.66;4985256;28;20204;-76
2023/12/09 10:11:53;;;;;;;7.00;6.25;;;;;;;3.74;93.95;62381.38;4975642;28;20232;-79
2023/12/09 10:14:20;;;;;;;7.47;5.90;;;;;;;3.66;93.96;62373.13;4986469;28;20216;-78
2023/12/09 10:16:47;;;;;;;5.85;5.25;;;;;;;3.66;93.64;62368.09;4985521;28;20219;-78
2023/12/09 10:19:14;;;;;;;6.85;6.25;;;;;;;3.87;93.99;62396.75;4990151;28;20588;-78
2023/12/09 10:21:41;;;;;;;5.68;5.18;;;;;;;3.85;92.25;62390.16;4986789;28;20231;-77
2023/12/09 10:24:09;;;;;;;5.93;5.43;;;;;;;3.33;94.52;62336.72;4982130;28;20267;-77
2023/12/09 10:26:36;;;;;;;7.28;5.75;;;;;;;3.38;96.51;62347.38;4985607;28;20279;-77
2023/12/09 10:29:04;;;;;;;6.82;5.32;;;;;;;3.48;94.42;62357.16;4986330;28;20278;-79
2023/12/09 10:31:34;;;;;;;10.73;6.22;;;;;;;3.68;94.39;62374.69;4986430;28;20381;-78
2023/12/09 10:34:01;;;;;;;7.90;7.00;;;;;;;3.88;94.52;62400.81;4984288;28;20231;-78
2023/12/09 10:36:29;;;;;;;8.65;6.72;;;;;;;3.90;92.75;62397.31;4995927;28;20196;-80
2023/12/09 10:38:55;;;;;;;10.95;7.75;;;;;;;3.90;92.88;62399.84;4994001;28;20295;-79
2023/12/09 10:41:25;;;;;;;8.75;7.43;;;;;;;3.99;92.86;62409.59;4993515;28;20467;-79
2023/12/09 10:43:53;;;;;;;8.88;6.20;;;;;;;4.08;92.75;62418.88;4979469;28;20204;-77
2023/12/09 10:46:20;;;;;;;7.93;6.60;;;;;;;4.04;92.22;62412.22;4993147;28;20370;-77
2023/12/09 10:48:47;;;;;;;9.90;6.38;;;;;;;3.08;94.22;62311.00;4990353;28;20243;-78
2023/12/09 10:51:14;;;;;;;8.05;6.13;;;;;;;2.88;98.86;62295.47;4979014;28;20208;-77
2023/12/09 10:53:41;;;;;;;9.82;6.45;;;;;;;3.26;99.60;62332.03;4992244;28;20231;-78
2023/12/09 10:56:09;;;;;;;9.02;6.40;;;;;;;2.96;98.33;62301.69;4992213;28;20211;-78
2023/12/09 10:58:37;;;;;;;8.43;7.35;;;;;;;3.37;100.00;62348.88;4987788;28;20282;-78
2023/12/09 11:01:07;;;;;;;8.65;7.28;;;;;;;3.60;97.43;62364.47;4993701;28;20211;-80
2023/12/09 11:03:34;;;;;;;9.15;7.28;;;;;;;3.83;95.78;62392.63;4995107;28;20228;-78
2023/12/09 11:06:01;;;;;;;7.00;6.07;;;;;;;3.92;93.39;62404.41;4986903;28;20199;-79
2023/12/09 11:08:28;;;;;;;7.18;6.30;;;;;;;4.07;92.70;62415.31;4991410;28;20242;-80
2023/12/09 11:10:55;;;;;;;7.30;6.60;;;;;;;4.18;92.30;62429.16;4994590;28;20204;-80
2023/12/09 11:13:25;;;;;;;7.35;6.07;;;;;;;4.31;90.88;62440.03;4995033;28;20236;-81
2023/12/09 11:16:08;;;;;;;8.82;6.43;;;;;;;4.48;89.72;62454.47;4978948;28;20221;-80
2023/12/09 11:18:35;;;;;;;7.13;6.43;;;;;;;4.53;87.86;62465.19;4986549;28;20273;-80
2023/12/09 11:21:02;;;;;;;7.75;6.97;;;;;;;4.22;90.05;62432.75;4993796;28;20232;-79
2023/12/09 11:23:29;;;;;;;10.60;7.30;;;;;;;4.03;92.38;62413.22;4992075;28;20223;-79
2023/12/09 11:25:56;;;;;;;7.45;6.40;;;;;;;3.82;93.60;62386.56;4990488;28;20262;-79
2023/12/09 11:28:24;;;;;;;7.82;7.00;;;;;;;4.07;94.45;62414.81;4992650;28;20220;-80
2023/12/09 11:30:55;;;;;;;10.18;6.53;;;;;;;4.33;92.01;62441.56;4991714;28;20208;-82